Barkersville, South Carolina
Current Conditions -  °F | °C
As of 2:56 AM on Thursday 23 Oct 2014 (Local Time) from KNBC Reporting Station
Clear Clear  
Wind Chill: 52°   Ceiling: Unl
Heat Index: 52°   Visibility: 10mi
Dew Point: 45°   Wind: 7mph
Humidity: 77%   Direction: 360°N
Pressure: 30.07"   Gusts: NA
Location:  32.6221°N, 81.0484°W
Report Text: KNBC 230656Z AUTO 36006KT 10SM CLR 11/07 A3007 RMK AO2 SLP183 T01110072 $
Loading
Personal Weather Stations






























Interactive Weather Map
Tropical Storm Tracking
New forecast layout! Learn more

10-Day Weather Forecast

Advertisements
Track Severe Weather on mobile